sensor_id;sensor_type;location;lat;lon;timestamp;P1;durP1;ratioP1;P2;durP2;ratioP2
5674;SDS011;2860;54.284;10.158;2023-01-23T00:00:03;4.57;;;4.07;;
5674;SDS011;2860;54.284;10.158;2023-01-23T00:02:32;5.97;;;4.07;;
5674;SDS011;2860;54.284;10.158;2023-01-23T00:04:57;5.45;;;3.25;;
5674;SDS011;2860;54.284;10.158;2023-01-23T00:07:23;6.63;;;4.13;;
5674;SDS011;2860;54.284;10.158;2023-01-23T00:09:48;8.55;;;4.65;;
5674;SDS011;2860;54.284;10.158;2023-01-23T00:12:14;5.47;;;5.05;;
5674;SDS011;2860;54.284;10.158;2023-01-23T00:14:39;6.40;;;4.57;;
5674;SDS011;2860;54.284;10.158;2023-01-23T00:17:05;5.15;;;4.28;;
5674;SDS011;2860;54.284;10.158;2023-01-23T00:19:30;8.50;;;5.40;;
5674;SDS011;2860;54.284;10.158;2023-01-23T00:21:57;7.40;;;5.13;;
5674;SDS011;2860;54.284;10.158;2023-01-23T00:24:24;8.68;;;5.40;;
5674;SDS011;2860;54.284;10.158;2023-01-23T00:26:49;5.82;;;4.82;;
5674;SDS011;2860;54.284;10.158;2023-01-23T00:29:15;5.78;;;5.18;;
5674;SDS011;2860;54.284;10.158;2023-01-23T00:31:40;5.50;;;4.88;;
5674;SDS011;2860;54.284;10.158;2023-01-23T00:34:07;7.15;;;5.20;;
5674;SDS011;2860;54.284;10.158;2023-01-23T00:36:37;5.40;;;5.07;;
5674;SDS011;2860;54.284;10.158;2023-01-23T00:39:06;6.45;;;5.00;;
5674;SDS011;2860;54.284;10.158;2023-01-23T00:41:40;7.72;;;5.18;;
5674;SDS011;2860;54.284;10.158;2023-01-23T00:44:06;4.85;;;4.43;;
5674;SDS011;2860;54.284;10.158;2023-01-23T00:46:31;6.45;;;4.70;;
5674;SDS011;2860;54.284;10.158;2023-01-23T00:48:58;6.00;;;5.60;;
5674;SDS011;2860;54.284;10.158;2023-01-23T00:51:24;8.35;;;5.63;;
5674;SDS011;2860;54.284;10.158;2023-01-23T00:53:50;5.13;;;4.93;;
5674;SDS011;2860;54.284;10.158;2023-01-23T00:56:15;13.88;;;5.40;;
5674;SDS011;2860;54.284;10.158;2023-01-23T00:58:41;8.32;;;5.00;;
5674;SDS011;2860;54.284;10.158;2023-01-23T01:01:07;5.20;;;4.43;;
5674;SDS011;2860;54.284;10.158;2023-01-23T01:03:33;6.85;;;5.25;;
5674;SDS011;2860;54.284;10.158;2023-01-23T01:05:59;7.07;;;5.60;;
5674;SDS011;2860;54.284;10.158;2023-01-23T01:08:25;8.75;;;5.35;;
5674;SDS011;2860;54.284;10.158;2023-01-23T01:10:50;7.20;;;5.25;;
5674;SDS011;2860;54.284;10.158;2023-01-23T01:13:16;5.70;;;5.28;;
5674;SDS011;2860;54.284;10.158;2023-01-23T01:15:45;6.68;;;5.65;;
5674;SDS011;2860;54.284;10.158;2023-01-23T01:18:15;9.65;;;5.50;;
5674;SDS011;2860;54.284;10.158;2023-01-23T01:20:42;6.30;;;5.47;;
5674;SDS011;2860;54.284;10.158;2023-01-23T01:23:08;9.23;;;5.32;;
5674;SDS011;2860;54.284;10.158;2023-01-23T01:25:34;7.95;;;5.78;;
5674;SDS011;2860;54.284;10.158;2023-01-23T01:28:00;6.97;;;6.43;;
5674;SDS011;2860;54.284;10.158;2023-01-23T01:30:25;5.82;;;5.32;;
5674;SDS011;2860;54.284;10.158;2023-01-23T01:32:51;6.18;;;5.32;;
5674;SDS011;2860;54.284;10.158;2023-01-23T01:35:18;11.00;;;5.20;;
5674;SDS011;2860;54.284;10.158;2023-01-23T01:37:44;6.22;;;4.85;;
5674;SDS011;2860;54.284;10.158;2023-01-23T01:40:14;6.13;;;4.93;;
5674;SDS011;2860;54.284;10.158;2023-01-23T01:42:55;12.45;;;5.90;;
5674;SDS011;2860;54.284;10.158;2023-01-23T01:48:26;11.65;;;5.50;;
5674;SDS011;2860;54.284;10.158;2023-01-23T01:53:56;8.00;;;5.90;;
5674;SDS011;2860;54.284;10.158;2023-01-23T01:56:27;7.13;;;6.18;;
5674;SDS011;2860;54.284;10.158;2023-01-23T01:58:54;6.10;;;5.60;;
5674;SDS011;2860;54.284;10.158;2023-01-23T02:01:22;9.05;;;6.25;;
5674;SDS011;2860;54.284;10.158;2023-01-23T02:03:48;9.65;;;6.03;;
5674;SDS011;2860;54.284;10.158;2023-01-23T02:06:16;6.35;;;5.93;;
5674;SDS011;2860;54.284;10.158;2023-01-23T02:08:44;6.18;;;5.72;;
5674;SDS011;2860;54.284;10.158;2023-01-23T02:11:22;8.90;;;6.15;;
5674;SDS011;2860;54.284;10.158;2023-01-23T02:13:47;8.00;;;5.55;;
5674;SDS011;2860;54.284;10.158;2023-01-23T02:16:17;7.05;;;6.13;;
5674;SDS011;2860;54.284;10.158;2023-01-23T02:18:46;6.20;;;5.68;;
5674;SDS011;2860;54.284;10.158;2023-01-23T02:21:14;10.02;;;5.75;;
5674;SDS011;2860;54.284;10.158;2023-01-23T02:26:17;6.90;;;6.20;;
5674;SDS011;2860;54.284;10.158;2023-01-23T02:28:47;7.22;;;5.95;;
5674;SDS011;2860;54.284;10.158;2023-01-23T02:31:15;6.45;;;5.70;;
5674;SDS011;2860;54.284;10.158;2023-01-23T02:33:43;7.18;;;6.45;;
5674;SDS011;2860;54.284;10.158;2023-01-23T02:36:20;8.20;;;6.47;;
5674;SDS011;2860;54.284;10.158;2023-01-23T02:41:29;11.05;;;7.05;;
5674;SDS011;2860;54.284;10.158;2023-01-23T02:43:57;7.28;;;6.63;;
5674;SDS011;2860;54.284;10.158;2023-01-23T02:46:26;12.55;;;7.03;;
5674;SDS011;2860;54.284;10.158;2023-01-23T02:48:51;8.52;;;7.28;;
5674;SDS011;2860;54.284;10.158;2023-01-23T02:51:17;6.65;;;6.10;;
5674;SDS011;2860;54.284;10.158;2023-01-23T02:53:44;7.85;;;7.05;;
5674;SDS011;2860;54.284;10.158;2023-01-23T02:56:10;7.68;;;6.30;;
5674;SDS011;2860;54.284;10.158;2023-01-23T02:58:35;8.27;;;6.32;;
5674;SDS011;2860;54.284;10.158;2023-01-23T03:01:20;6.15;;;5.75;;
5674;SDS011;2860;54.284;10.158;2023-01-23T03:03:45;7.07;;;6.45;;
5674;SDS011;2860;54.284;10.158;2023-01-23T03:06:15;8.23;;;6.93;;
5674;SDS011;2860;54.284;10.158;2023-01-23T03:08:41;7.38;;;6.15;;
5674;SDS011;2860;54.284;10.158;2023-01-23T03:11:12;6.40;;;5.93;;
5674;SDS011;2860;54.284;10.158;2023-01-23T03:13:38;6.82;;;6.15;;
5674;SDS011;2860;54.284;10.158;2023-01-23T03:16:04;6.72;;;6.32;;
5674;SDS011;2860;54.284;10.158;2023-01-23T03:18:31;6.70;;;6.13;;
5674;SDS011;2860;54.284;10.158;2023-01-23T03:21:04;7.13;;;6.53;;
5674;SDS011;2860;54.284;10.158;2023-01-23T03:23:31;6.70;;;6.20;;
5674;SDS011;2860;54.284;10.158;2023-01-23T03:25:57;6.80;;;5.68;;
5674;SDS011;2860;54.284;10.158;2023-01-23T03:28:25;10.65;;;6.30;;
5674;SDS011;2860;54.284;10.158;2023-01-23T03:31:11;8.00;;;6.45;;
5674;SDS011;2860;54.284;10.158;2023-01-23T03:33:37;13.20;;;7.38;;
5674;SDS011;2860;54.284;10.158;2023-01-23T03:36:07;7.28;;;6.38;;
5674;SDS011;2860;54.284;10.158;2023-01-23T03:38:36;6.22;;;5.88;;
5674;SDS011;2860;54.284;10.158;2023-01-23T03:41:01;7.00;;;6.35;;
5674;SDS011;2860;54.284;10.158;2023-01-23T03:43:45;7.65;;;6.85;;
5674;SDS011;2860;54.284;10.158;2023-01-23T03:46:11;6.35;;;5.68;;
5674;SDS011;2860;54.284;10.158;2023-01-23T03:48:36;7.22;;;5.90;;
5674;SDS011;2860;54.284;10.158;2023-01-23T03:51:03;6.55;;;6.15;;
5674;SDS011;2860;54.284;10.158;2023-01-23T03:53:29;6.90;;;6.20;;
5674;SDS011;2860;54.284;10.158;2023-01-23T03:55:55;7.38;;;6.00;;
5674;SDS011;2860;54.284;10.158;2023-01-23T03:58:21;11.32;;;6.70;;
5674;SDS011;2860;54.284;10.158;2023-01-23T04:00:46;6.78;;;6.28;;
5674;SDS011;2860;54.284;10.158;2023-01-23T04:03:12;9.52;;;6.13;;
5674;SDS011;2860;54.284;10.158;2023-01-23T04:05:37;6.43;;;5.72;;
5674;SDS011;2860;54.284;10.158;2023-01-23T04:08:03;10.93;;;7.47;;
5674;SDS011;2860;54.284;10.158;2023-01-23T04:10:28;14.18;;;9.60;;
5674;SDS011;2860;54.284;10.158;2023-01-23T04:12:54;9.40;;;6.63;;
5674;SDS011;2860;54.284;10.158;2023-01-23T04:15:19;7.00;;;6.30;;
5674;SDS011;2860;54.284;10.158;2023-01-23T04:17:45;7.25;;;5.90;;
5674;SDS011;2860;54.284;10.158;2023-01-23T04:20:11;7.28;;;6.68;;
5674;SDS011;2860;54.284;10.158;2023-01-23T04:22:37;5.97;;;5.50;;
5674;SDS011;2860;54.284;10.158;2023-01-23T04:25:03;8.38;;;6.70;;
5674;SDS011;2860;54.284;10.158;2023-01-23T04:27:29;6.35;;;5.85;;
5674;SDS011;2860;54.284;10.158;2023-01-23T04:29:55;6.85;;;6.10;;
5674;SDS011;2860;54.284;10.158;2023-01-23T04:32:22;6.30;;;5.53;;
5674;SDS011;2860;54.284;10.158;2023-01-23T04:34:47;11.52;;;6.25;;
5674;SDS011;2860;54.284;10.158;2023-01-23T04:37:13;6.93;;;6.10;;
5674;SDS011;2860;54.284;10.158;2023-01-23T04:39:38;7.28;;;6.55;;
5674;SDS011;2860;54.284;10.158;2023-01-23T04:42:04;6.65;;;6.10;;
5674;SDS011;2860;54.284;10.158;2023-01-23T04:44:30;7.88;;;5.82;;
5674;SDS011;2860;54.284;10.158;2023-01-23T04:46:55;6.03;;;5.72;;
5674;SDS011;2860;54.284;10.158;2023-01-23T04:49:21;6.95;;;6.30;;
5674;SDS011;2860;54.284;10.158;2023-01-23T04:51:47;6.93;;;6.28;;
5674;SDS011;2860;54.284;10.158;2023-01-23T04:54:14;6.97;;;6.35;;
5674;SDS011;2860;54.284;10.158;2023-01-23T04:56:40;6.95;;;6.30;;
5674;SDS011;2860;54.284;10.158;2023-01-23T04:59:06;6.85;;;5.85;;
5674;SDS011;2860;54.284;10.158;2023-01-23T05:01:32;7.90;;;7.10;;
5674;SDS011;2860;54.284;10.158;2023-01-23T05:03:58;7.78;;;6.55;;
5674;SDS011;2860;54.284;10.158;2023-01-23T05:06:23;8.80;;;6.65;;
5674;SDS011;2860;54.284;10.158;2023-01-23T05:08:49;10.13;;;7.03;;
5674;SDS011;2860;54.284;10.158;2023-01-23T05:11:15;7.30;;;6.60;;
5674;SDS011;2860;54.284;10.158;2023-01-23T05:13:41;8.23;;;7.50;;
5674;SDS011;2860;54.284;10.158;2023-01-23T05:16:06;9.90;;;7.60;;
5674;SDS011;2860;54.284;10.158;2023-01-23T05:18:32;9.20;;;7.80;;
5674;SDS011;2860;54.284;10.158;2023-01-23T05:20:57;6.88;;;6.38;;
5674;SDS011;2860;54.284;10.158;2023-01-23T05:23:23;8.75;;;7.55;;
5674;SDS011;2860;54.284;10.158;2023-01-23T05:25:48;9.48;;;7.63;;
5674;SDS011;2860;54.284;10.158;2023-01-23T05:28:14;13.70;;;7.65;;
5674;SDS011;2860;54.284;10.158;2023-01-23T05:30:40;9.63;;;7.05;;
5674;SDS011;2860;54.284;10.158;2023-01-23T05:33:05;9.68;;;7.60;;
5674;SDS011;2860;54.284;10.158;2023-01-23T05:35:31;10.68;;;7.65;;
5674;SDS011;2860;54.284;10.158;2023-01-23T05:37:56;10.23;;;6.40;;
5674;SDS011;2860;54.284;10.158;2023-01-23T05:40:22;10.52;;;7.28;;
5674;SDS011;2860;54.284;10.158;2023-01-23T05:42:48;7.75;;;7.13;;
5674;SDS011;2860;54.284;10.158;2023-01-23T05:45:14;7.88;;;7.03;;
5674;SDS011;2860;54.284;10.158;2023-01-23T05:47:40;8.88;;;6.55;;
5674;SDS011;2860;54.284;10.158;2023-01-23T05:50:07;7.07;;;6.30;;
5674;SDS011;2860;54.284;10.158;2023-01-23T05:52:34;10.32;;;6.22;;
5674;SDS011;2860;54.284;10.158;2023-01-23T05:55:00;6.55;;;6.03;;
5674;SDS011;2860;54.284;10.158;2023-01-23T05:57:25;9.52;;;6.95;;
5674;SDS011;2860;54.284;10.158;2023-01-23T05:59:51;4.43;;;4.10;;
5674;SDS011;2860;54.284;10.158;2023-01-23T06:02:16;6.03;;;5.53;;
5674;SDS011;2860;54.284;10.158;2023-01-23T06:04:42;4.65;;;4.35;;
5674;SDS011;2860;54.284;10.158;2023-01-23T06:07:13;4.35;;;4.25;;
5674;SDS011;2860;54.284;10.158;2023-01-23T06:09:40;6.10;;;5.55;;
5674;SDS011;2860;54.284;10.158;2023-01-23T06:12:06;4.57;;;4.35;;
5674;SDS011;2860;54.284;10.158;2023-01-23T06:14:32;5.32;;;5.03;;
5674;SDS011;2860;54.284;10.158;2023-01-23T06:16:58;5.63;;;5.22;;
5674;SDS011;2860;54.284;10.158;2023-01-23T06:19:23;6.28;;;5.82;;
5674;SDS011;2860;54.284;10.158;2023-01-23T06:21:49;6.05;;;5.55;;
5674;SDS011;2860;54.284;10.158;2023-01-23T06:24:14;6.25;;;5.80;;
5674;SDS011;2860;54.284;10.158;2023-01-23T06:26:40;5.47;;;5.05;;
5674;SDS011;2860;54.284;10.158;2023-01-23T06:29:06;6.15;;;5.85;;
5674;SDS011;2860;54.284;10.158;2023-01-23T06:31:31;6.20;;;5.38;;
5674;SDS011;2860;54.284;10.158;2023-01-23T06:33:57;6.93;;;6.30;;
5674;SDS011;2860;54.284;10.158;2023-01-23T06:36:23;8.65;;;6.30;;
5674;SDS011;2860;54.284;10.158;2023-01-23T06:38:50;6.13;;;5.85;;
5674;SDS011;2860;54.284;10.158;2023-01-23T06:41:16;6.57;;;6.10;;
5674;SDS011;2860;54.284;10.158;2023-01-23T06:43:41;7.25;;;6.70;;
5674;SDS011;2860;54.284;10.158;2023-01-23T06:46:07;6.47;;;5.88;;
5674;SDS011;2860;54.284;10.158;2023-01-23T06:48:33;7.00;;;6.50;;
5674;SDS011;2860;54.284;10.158;2023-01-23T06:51:00;8.10;;;7.28;;
5674;SDS011;2860;54.284;10.158;2023-01-23T06:53:26;7.53;;;6.70;;
5674;SDS011;2860;54.284;10.158;2023-01-23T06:55:51;7.60;;;7.00;;
5674;SDS011;2860;54.284;10.158;2023-01-23T06:58:17;7.22;;;6.60;;
5674;SDS011;2860;54.284;10.158;2023-01-23T07:00:43;6.90;;;6.43;;
5674;SDS011;2860;54.284;10.158;2023-01-23T07:03:11;8.00;;;7.35;;
5674;SDS011;2860;54.284;10.158;2023-01-23T07:05:38;7.88;;;7.30;;
5674;SDS011;2860;54.284;10.158;2023-01-23T07:08:07;9.13;;;8.32;;
5674;SDS011;2860;54.284;10.158;2023-01-23T07:10:33;9.45;;;8.52;;
5674;SDS011;2860;54.284;10.158;2023-01-23T07:13:01;8.35;;;7.53;;
5674;SDS011;2860;54.284;10.158;2023-01-23T07:15:30;8.60;;;7.90;;
5674;SDS011;2860;54.284;10.158;2023-01-23T07:17:56;9.85;;;6.88;;
5674;SDS011;2860;54.284;10.158;2023-01-23T07:20:21;8.60;;;7.90;;
5674;SDS011;2860;54.284;10.158;2023-01-23T07:22:51;8.73;;;7.85;;
5674;SDS011;2860;54.284;10.158;2023-01-23T07:25:20;9.45;;;8.18;;
5674;SDS011;2860;54.284;10.158;2023-01-23T07:27:46;9.52;;;8.63;;
5674;SDS011;2860;54.284;10.158;2023-01-23T07:30:12;9.13;;;8.32;;
5674;SDS011;2860;54.284;10.158;2023-01-23T07:32:38;8.93;;;8.13;;
5674;SDS011;2860;54.284;10.158;2023-01-23T07:35:04;11.57;;;9.50;;
5674;SDS011;2860;54.284;10.158;2023-01-23T07:37:30;9.50;;;8.60;;
5674;SDS011;2860;54.284;10.158;2023-01-23T07:39:56;10.85;;;9.75;;
5674;SDS011;2860;54.284;10.158;2023-01-23T07:42:21;11.35;;;9.82;;
5674;SDS011;2860;54.284;10.158;2023-01-23T07:44:47;9.93;;;8.75;;
5674;SDS011;2860;54.284;10.158;2023-01-23T07:47:16;9.70;;;8.65;;
5674;SDS011;2860;54.284;10.158;2023-01-23T07:49:41;9.50;;;7.90;;
5674;SDS011;2860;54.284;10.158;2023-01-23T07:52:07;9.13;;;8.25;;
5674;SDS011;2860;54.284;10.158;2023-01-23T07:54:33;8.82;;;8.07;;
5674;SDS011;2860;54.284;10.158;2023-01-23T07:56:58;9.65;;;8.40;;
5674;SDS011;2860;54.284;10.158;2023-01-23T07:59:24;9.35;;;8.45;;
5674;SDS011;2860;54.284;10.158;2023-01-23T08:01:49;9.02;;;8.18;;
5674;SDS011;2860;54.284;10.158;2023-01-23T08:04:16;8.40;;;7.68;;
5674;SDS011;2860;54.284;10.158;2023-01-23T08:06:43;10.10;;;9.07;;
5674;SDS011;2860;54.284;10.158;2023-01-23T08:09:08;8.57;;;7.88;;
5674;SDS011;2860;54.284;10.158;2023-01-23T08:11:34;9.75;;;8.85;;
5674;SDS011;2860;54.284;10.158;2023-01-23T08:14:00;9.35;;;8.35;;
5674;SDS011;2860;54.284;10.158;2023-01-23T08:16:25;8.63;;;7.88;;
5674;SDS011;2860;54.284;10.158;2023-01-23T08:18:51;8.77;;;7.88;;
5674;SDS011;2860;54.284;10.158;2023-01-23T08:21:18;8.73;;;8.02;;
5674;SDS011;2860;54.284;10.158;2023-01-23T08:23:44;9.60;;;8.35;;
5674;SDS011;2860;54.284;10.158;2023-01-23T08:26:10;9.55;;;8.75;;
5674;SDS011;2860;54.284;10.158;2023-01-23T08:28:38;10.07;;;9.07;;
5674;SDS011;2860;54.284;10.158;2023-01-23T08:31:05;14.63;;;9.50;;
5674;SDS011;2860;54.284;10.158;2023-01-23T08:33:33;11.00;;;9.88;;
5674;SDS011;2860;54.284;10.158;2023-01-23T08:35:59;10.43;;;9.40;;
5674;SDS011;2860;54.284;10.158;2023-01-23T08:38:25;10.32;;;9.48;;
5674;SDS011;2860;54.284;10.158;2023-01-23T08:40:51;14.18;;;10.95;;
5674;SDS011;2860;54.284;10.158;2023-01-23T08:43:19;12.35;;;10.38;;
5674;SDS011;2860;54.284;10.158;2023-01-23T08:45:52;13.57;;;10.27;;
5674;SDS011;2860;54.284;10.158;2023-01-23T08:48:19;12.10;;;10.18;;
5674;SDS011;2860;54.284;10.158;2023-01-23T08:50:46;11.35;;;9.60;;
5674;SDS011;2860;54.284;10.158;2023-01-23T08:53:12;12.50;;;10.48;;
5674;SDS011;2860;54.284;10.158;2023-01-23T08:55:37;11.27;;;10.10;;
5674;SDS011;2860;54.284;10.158;2023-01-23T08:58:04;11.38;;;10.32;;
5674;SDS011;2860;54.284;10.158;2023-01-23T09:00:31;13.65;;;10.93;;
5674;SDS011;2860;54.284;10.158;2023-01-23T09:03:00;13.35;;;10.68;;
5674;SDS011;2860;54.284;10.158;2023-01-23T09:05:27;11.40;;;10.27;;
5674;SDS011;2860;54.284;10.158;2023-01-23T09:07:56;11.18;;;10.18;;
5674;SDS011;2860;54.284;10.158;2023-01-23T09:10:23;12.85;;;9.80;;
5674;SDS011;2860;54.284;10.158;2023-01-23T09:12:52;14.88;;;12.02;;
5674;SDS011;2860;54.284;10.158;2023-01-23T09:15:18;14.98;;;11.57;;
5674;SDS011;2860;54.284;10.158;2023-01-23T09:17:46;12.77;;;11.48;;
5674;SDS011;2860;54.284;10.158;2023-01-23T09:20:12;14.20;;;11.25;;
5674;SDS011;2860;54.284;10.158;2023-01-23T09:22:37;15.10;;;11.25;;
5674;SDS011;2860;54.284;10.158;2023-01-23T09:25:03;16.52;;;11.73;;
5674;SDS011;2860;54.284;10.158;2023-01-23T09:27:29;15.07;;;11.70;;
5674;SDS011;2860;54.284;10.158;2023-01-23T09:29:55;11.88;;;10.60;;
5674;SDS011;2860;54.284;10.158;2023-01-23T09:32:20;15.73;;;11.68;;
5674;SDS011;2860;54.284;10.158;2023-01-23T09:34:46;13.63;;;11.68;;
5674;SDS011;2860;54.284;10.158;2023-01-23T09:37:15;13.60;;;12.02;;
5674;SDS011;2860;54.284;10.158;2023-01-23T09:39:41;12.20;;;10.75;;
5674;SDS011;2860;54.284;10.158;2023-01-23T09:42:15;16.45;;;12.65;;
5674;SDS011;2860;54.284;10.158;2023-01-23T09:44:44;16.48;;;11.80;;
5674;SDS011;2860;54.284;10.158;2023-01-23T09:47:19;13.38;;;11.23;;
5674;SDS011;2860;54.284;10.158;2023-01-23T09:49:57;13.77;;;10.88;;
5674;SDS011;2860;54.284;10.158;2023-01-23T09:52:27;16.60;;;12.13;;
5674;SDS011;2860;54.284;10.158;2023-01-23T09:54:59;10.68;;;9.23;;
5674;SDS011;2860;54.284;10.158;2023-01-23T09:57:38;13.57;;;10.38;;
5674;SDS011;2860;54.284;10.158;2023-01-23T10:00:12;13.38;;;10.75;;
5674;SDS011;2860;54.284;10.158;2023-01-23T10:02:51;11.02;;;9.85;;
5674;SDS011;2860;54.284;10.158;2023-01-23T10:05:19;15.20;;;10.45;;
5674;SDS011;2860;54.284;10.158;2023-01-23T10:11:16;16.73;;;10.32;;
5674;SDS011;2860;54.284;10.158;2023-01-23T10:19:53;12.80;;;11.15;;
5674;SDS011;2860;54.284;10.158;2023-01-23T10:25:08;12.20;;;10.95;;
5674;SDS011;2860;54.284;10.158;2023-01-23T10:27:40;13.35;;;11.82;;
5674;SDS011;2860;54.284;10.158;2023-01-23T10:32:46;13.60;;;11.57;;
5674;SDS011;2860;54.284;10.158;2023-01-23T10:35:24;16.75;;;12.07;;
5674;SDS011;2860;54.284;10.158;2023-01-23T10:38:02;15.20;;;10.50;;
5674;SDS011;2860;54.284;10.158;2023-01-23T10:40:49;12.63;;;10.65;;
5674;SDS011;2860;54.284;10.158;2023-01-23T10:43:34;14.93;;;11.80;;
5674;SDS011;2860;54.284;10.158;2023-01-23T10:46:00;17.17;;;12.85;;
5674;SDS011;2860;54.284;10.158;2023-01-23T10:51:25;15.75;;;12.68;;
5674;SDS011;2860;54.284;10.158;2023-01-23T11:02:27;14.25;;;11.77;;
5674;SDS011;2860;54.284;10.158;2023-01-23T11:04:53;15.98;;;12.85;;
5674;SDS011;2860;54.284;10.158;2023-01-23T11:07:20;15.93;;;12.57;;
5674;SDS011;2860;54.284;10.158;2023-01-23T11:12:29;15.85;;;11.30;;
5674;SDS011;2860;54.284;10.158;2023-01-23T11:15:38;17.52;;;12.90;;
5674;SDS011;2860;54.284;10.158;2023-01-23T11:17:52;15.18;;;11.82;;
5674;SDS011;2860;54.284;10.158;2023-01-23T11:20:23;16.02;;;12.80;;
5674;SDS011;2860;54.284;10.158;2023-01-23T11:25:38;13.35;;;11.82;;
5674;SDS011;2860;54.284;10.158;2023-01-23T11:28:20;14.23;;;12.15;;
5674;SDS011;2860;54.284;10.158;2023-01-23T11:31:21;19.77;;;13.13;;
5674;SDS011;2860;54.284;10.158;2023-01-23T11:34:02;22.23;;;12.55;;
5674;SDS011;2860;54.284;10.158;2023-01-23T11:36:44;15.93;;;13.55;;
5674;SDS011;2860;54.284;10.158;2023-01-23T11:39:27;15.65;;;11.23;;
5674;SDS011;2860;54.284;10.158;2023-01-23T11:42:17;14.63;;;12.18;;
5674;SDS011;2860;54.284;10.158;2023-01-23T11:44:44;14.85;;;11.85;;
5674;SDS011;2860;54.284;10.158;2023-01-23T11:52:48;17.55;;;12.48;;
5674;SDS011;2860;54.284;10.158;2023-01-23T12:00:53;13.80;;;11.65;;
5674;SDS011;2860;54.284;10.158;2023-01-23T12:09:19;16.67;;;12.82;;
5674;SDS011;2860;54.284;10.158;2023-01-23T12:15:11;13.55;;;11.23;;
5674;SDS011;2860;54.284;10.158;2023-01-23T12:18:01;12.85;;;11.27;;
5674;SDS011;2860;54.284;10.158;2023-01-23T12:31:18;12.38;;;11.18;;
5674;SDS011;2860;54.284;10.158;2023-01-23T12:39:31;12.57;;;11.27;;
5674;SDS011;2860;54.284;10.158;2023-01-23T12:42:22;14.60;;;10.88;;
5674;SDS011;2860;54.284;10.158;2023-01-23T12:45:11;14.45;;;12.05;;
5674;SDS011;2860;54.284;10.158;2023-01-23T12:50:26;15.60;;;11.43;;
5674;SDS011;2860;54.284;10.158;2023-01-23T12:53:03;13.35;;;12.05;;
5674;SDS011;2860;54.284;10.158;2023-01-23T12:58:25;14.90;;;11.27;;
5674;SDS011;2860;54.284;10.158;2023-01-23T13:00:57;12.30;;;11.07;;
5674;SDS011;2860;54.284;10.158;2023-01-23T13:04:01;13.05;;;11.52;;
5674;SDS011;2860;54.284;10.158;2023-01-23T13:06:46;12.68;;;10.77;;
5674;SDS011;2860;54.284;10.158;2023-01-23T13:12:24;13.57;;;11.80;;
5674;SDS011;2860;54.284;10.158;2023-01-23T13:14:52;12.77;;;11.48;;
5674;SDS011;2860;54.284;10.158;2023-01-23T13:23:31;15.75;;;11.15;;
5674;SDS011;2860;54.284;10.158;2023-01-23T13:28:43;23.40;;;12.98;;
5674;SDS011;2860;54.284;10.158;2023-01-23T13:33:58;13.43;;;12.05;;
5674;SDS011;2860;54.284;10.158;2023-01-23T13:36:26;13.55;;;11.48;;
5674;SDS011;2860;54.284;10.158;2023-01-23T13:39:00;16.42;;;11.90;;
5674;SDS011;2860;54.284;10.158;2023-01-23T13:41:42;15.40;;;12.07;;
5674;SDS011;2860;54.284;10.158;2023-01-23T13:44:21;15.85;;;11.23;;
5674;SDS011;2860;54.284;10.158;2023-01-23T13:52:14;15.52;;;11.85;;
5674;SDS011;2860;54.284;10.158;2023-01-23T13:55:12;17.13;;;12.95;;
5674;SDS011;2860;54.284;10.158;2023-01-23T13:58:14;19.05;;;12.27;;
5674;SDS011;2860;54.284;10.158;2023-01-23T14:00:44;15.55;;;11.95;;
5674;SDS011;2860;54.284;10.158;2023-01-23T14:03:53;17.15;;;11.77;;
5674;SDS011;2860;54.284;10.158;2023-01-23T14:06:41;23.08;;;12.50;;
5674;SDS011;2860;54.284;10.158;2023-01-23T14:09:20;18.80;;;12.55;;
5674;SDS011;2860;54.284;10.158;2023-01-23T14:11:55;15.35;;;12.02;;
5674;SDS011;2860;54.284;10.158;2023-01-23T14:14:33;19.98;;;12.15;;
5674;SDS011;2860;54.284;10.158;2023-01-23T14:17:21;15.82;;;11.93;;
5674;SDS011;2860;54.284;10.158;2023-01-23T14:22:30;21.10;;;12.25;;
5674;SDS011;2860;54.284;10.158;2023-01-23T14:24:56;20.70;;;12.00;;
5674;SDS011;2860;54.284;10.158;2023-01-23T14:27:30;19.42;;;14.15;;
5674;SDS011;2860;54.284;10.158;2023-01-23T14:32:42;17.42;;;12.63;;
5674;SDS011;2860;54.284;10.158;2023-01-23T14:35:23;22.60;;;13.25;;
5674;SDS011;2860;54.284;10.158;2023-01-23T14:37:51;22.10;;;12.57;;
5674;SDS011;2860;54.284;10.158;2023-01-23T14:40:19;19.20;;;12.15;;
5674;SDS011;2860;54.284;10.158;2023-01-23T14:42:51;26.58;;;14.45;;
5674;SDS011;2860;54.284;10.158;2023-01-23T14:45:46;30.60;;;15.25;;
5674;SDS011;2860;54.284;10.158;2023-01-23T14:48:14;24.15;;;13.10;;
5674;SDS011;2860;54.284;10.158;2023-01-23T14:50:41;20.90;;;13.35;;
5674;SDS011;2860;54.284;10.158;2023-01-23T14:53:11;28.42;;;14.32;;
5674;SDS011;2860;54.284;10.158;2023-01-23T14:55:39;34.03;;;18.48;;
5674;SDS011;2860;54.284;10.158;2023-01-23T14:58:09;32.45;;;19.95;;
5674;SDS011;2860;54.284;10.158;2023-01-23T15:00:42;38.60;;;15.68;;
5674;SDS011;2860;54.284;10.158;2023-01-23T15:03:10;26.33;;;14.55;;
5674;SDS011;2860;54.284;10.158;2023-01-23T15:05:36;35.97;;;18.63;;
5674;SDS011;2860;54.284;10.158;2023-01-23T15:08:17;29.92;;;15.05;;
5674;SDS011;2860;54.284;10.158;2023-01-23T15:10:48;30.25;;;15.15;;
5674;SDS011;2860;54.284;10.158;2023-01-23T15:13:19;28.80;;;14.05;;
5674;SDS011;2860;54.284;10.158;2023-01-23T15:15:55;32.20;;;14.63;;
5674;SDS011;2860;54.284;10.158;2023-01-23T15:18:26;26.20;;;14.20;;
5674;SDS011;2860;54.284;10.158;2023-01-23T15:20:57;31.13;;;16.45;;
5674;SDS011;2860;54.284;10.158;2023-01-23T15:28:49;30.00;;;14.02;;
5674;SDS011;2860;54.284;10.158;2023-01-23T15:31:22;32.80;;;15.57;;
5674;SDS011;2860;54.284;10.158;2023-01-23T15:33:50;33.22;;;14.43;;
5674;SDS011;2860;54.284;10.158;2023-01-23T15:36:26;28.45;;;13.50;;
5674;SDS011;2860;54.284;10.158;2023-01-23T15:38:53;28.65;;;15.60;;
5674;SDS011;2860;54.284;10.158;2023-01-23T15:41:20;35.35;;;15.38;;
5674;SDS011;2860;54.284;10.158;2023-01-23T15:44:00;32.75;;;15.70;;
5674;SDS011;2860;54.284;10.158;2023-01-23T15:46:26;39.95;;;16.35;;
5674;SDS011;2860;54.284;10.158;2023-01-23T15:48:52;34.35;;;15.70;;
5674;SDS011;2860;54.284;10.158;2023-01-23T15:51:17;35.72;;;18.40;;
5674;SDS011;2860;54.284;10.158;2023-01-23T15:53:43;40.45;;;17.90;;
5674;SDS011;2860;54.284;10.158;2023-01-23T15:56:11;33.20;;;17.05;;
5674;SDS011;2860;54.284;10.158;2023-01-23T15:58:49;36.10;;;17.70;;
5674;SDS011;2860;54.284;10.158;2023-01-23T16:01:15;32.80;;;15.80;;
5674;SDS011;2860;54.284;10.158;2023-01-23T16:03:40;47.40;;;18.02;;
5674;SDS011;2860;54.284;10.158;2023-01-23T16:06:08;41.95;;;17.60;;
5674;SDS011;2860;54.284;10.158;2023-01-23T16:08:41;32.40;;;15.35;;
5674;SDS011;2860;54.284;10.158;2023-01-23T16:11:06;33.30;;;16.40;;
5674;SDS011;2860;54.284;10.158;2023-01-23T16:13:32;39.03;;;22.00;;
5674;SDS011;2860;54.284;10.158;2023-01-23T16:15:57;46.17;;;19.63;;
5674;SDS011;2860;54.284;10.158;2023-01-23T16:18:23;35.90;;;18.27;;
5674;SDS011;2860;54.284;10.158;2023-01-23T16:20:48;30.13;;;18.27;;
5674;SDS011;2860;54.284;10.158;2023-01-23T16:23:18;32.08;;;15.43;;
5674;SDS011;2860;54.284;10.158;2023-01-23T16:25:46;34.50;;;16.40;;
5674;SDS011;2860;54.284;10.158;2023-01-23T16:28:12;30.25;;;15.02;;
5674;SDS011;2860;54.284;10.158;2023-01-23T16:30:46;29.45;;;14.40;;
5674;SDS011;2860;54.284;10.158;2023-01-23T16:33:13;33.53;;;17.60;;
5674;SDS011;2860;54.284;10.158;2023-01-23T16:35:39;31.67;;;15.35;;
5674;SDS011;2860;54.284;10.158;2023-01-23T16:38:06;39.22;;;17.13;;
5674;SDS011;2860;54.284;10.158;2023-01-23T16:40:38;36.20;;;17.45;;
5674;SDS011;2860;54.284;10.158;2023-01-23T16:43:03;35.85;;;18.15;;
5674;SDS011;2860;54.284;10.158;2023-01-23T16:45:29;38.92;;;19.58;;
5674;SDS011;2860;54.284;10.158;2023-01-23T16:47:56;38.25;;;18.65;;
5674;SDS011;2860;54.284;10.158;2023-01-23T16:50:31;46.33;;;19.73;;
5674;SDS011;2860;54.284;10.158;2023-01-23T16:53:07;33.17;;;17.67;;
5674;SDS011;2860;54.284;10.158;2023-01-23T16:55:39;42.22;;;21.50;;